Time;durP1;ratioP1;P1;durP2;ratioP2;P2;SDS_P1;SDS_P2;PMS_P1;PMS_P2;Temp;Humidity;BMP_temperature;BMP_pressure;BME280_temperature;BME280_humidity;BME280_pressure;Samples;Min_cycle;Max_cycle;Signal;HPM_P1;HPM_P2
2022/08/30 00:01:21;;;;;;;9.07;3.90;;;;;;;28.57;42.96;98259.88;4408659;32;20104;-80
2022/08/30 00:03:48;;;;;;;12.52;5.22;;;;;;;25.67;51.81;98268.03;4408969;32;20483;-79
2022/08/30 00:06:17;;;;;;;13.38;5.95;;;;;;;23.02;69.89;98262.66;4408871;32;20442;-81
2022/08/30 00:08:44;;;;;;;18.92;6.80;;;;;;;22.77;73.29;98254.31;4408480;32;20401;-82
2022/08/30 00:11:15;;;;;;;20.73;7.68;;;;;;;21.38;80.75;98255.00;4408911;32;20105;-81
2022/08/30 00:13:44;;;;;;;17.65;6.75;;;;;;;22.65;76.39;98252.78;4409079;32;20102;-81
2022/08/30 00:16:12;;;;;;;13.43;5.65;;;;;;;23.58;70.85;98254.00;4410582;32;20102;-82
2022/08/30 00:18:39;;;;;;;13.75;6.97;;;;;;;23.24;71.45;98251.84;4410882;32;20078;-81
2022/08/30 00:21:07;;;;;;;12.50;6.22;;;;;;;23.95;68.31;98257.53;4410723;32;20079;-82
2022/08/30 00:23:35;;;;;;;14.95;6.97;;;;;;;25.02;64.03;98257.78;4422408;32;20162;-81
2022/08/30 00:26:03;;;;;;;14.68;6.80;;;;;;;25.83;61.72;98254.94;4409586;32;20094;-81
2022/08/30 00:28:31;;;;;;;16.25;7.32;;;;;;;25.22;64.20;98257.63;4410655;32;20098;-82
2022/08/30 00:30:57;;;;;;;12.52;6.00;;;;;;;25.62;63.96;98262.38;4410789;32;20125;-81
2022/08/30 00:33:24;;;;;;;12.05;6.30;;;;;;;25.81;62.72;98256.06;4410762;32;20094;-81
2022/08/30 00:35:51;;;;;;;14.30;6.37;;;;;;;25.77;62.46;98265.31;4410402;32;20106;-82
2022/08/30 00:38:18;;;;;;;15.02;6.35;;;;;;;26.20;60.65;98265.22;4410754;32;20086;-80
2022/08/30 00:40:45;;;;;;;13.30;6.57;;;;;;;25.64;63.43;98266.53;4410746;32;20501;-80
2022/08/30 00:43:17;;;;;;;14.40;6.45;;;;;;;25.61;64.99;98266.00;4410445;32;20449;-82
2022/08/30 00:45:45;;;;;;;13.18;6.20;;;;;;;25.80;63.97;98268.47;4422057;32;20510;-80
2022/08/30 00:48:12;;;;;;;13.13;6.10;;;;;;;25.87;63.30;98266.03;4410794;32;20109;-80
2022/08/30 00:50:44;;;;;;;11.30;5.75;;;;;;;26.81;59.28;98273.88;4410440;32;20146;-81
2022/08/30 00:53:19;;;;;;;14.40;6.53;;;;;;;27.27;57.27;98275.09;4422347;32;20160;-80
2022/08/30 00:55:47;;;;;;;14.43;6.60;;;;;;;27.81;57.53;98278.06;4409446;32;20498;-80
2022/08/30 00:58:20;;;;;;;14.40;6.82;;;;;;;27.17;59.45;98265.66;4409021;32;20090;-81
2022/08/30 01:00:53;;;;;;;16.83;6.95;;;;;;;27.38;59.03;98273.94;4410729;32;20082;-81
2022/08/30 01:03:20;;;;;;;15.23;6.30;;;;;;;27.53;58.43;98266.13;4409242;32;20105;-81
2022/08/30 01:05:49;;;;;;;12.52;6.37;;;;;;;27.85;57.32;98271.41;4410391;32;20161;-80
2022/08/30 01:08:18;;;;;;;13.62;6.60;;;;;;;27.94;56.49;98264.25;4410380;32;20086;-80
2022/08/30 01:10:45;;;;;;;12.63;6.60;;;;;;;27.59;57.70;98273.41;4410278;32;20104;-81
2022/08/30 01:13:13;;;;;;;14.87;6.65;;;;;;;27.12;59.18;98268.81;4409389;32;20102;-80
2022/08/30 01:15:41;;;;;;;14.35;6.80;;;;;;;27.33;58.77;98271.78;4410414;32;20113;-80
2022/08/30 01:18:10;;;;;;;12.25;5.95;;;;;;;28.00;55.82;98265.41;4410160;32;20463;-81
2022/08/30 01:21:14;;;;;;;13.20;6.43;;;;;;;27.47;57.33;98266.81;4410559;32;20090;-80
2022/08/30 01:23:44;;;;;;;11.40;6.30;;;;;;;27.98;55.83;98270.06;4409199;32;20153;-80
2022/08/30 01:26:12;;;;;;;14.05;6.18;;;;;;;27.41;56.53;98260.34;4409842;32;20160;-81
2022/08/30 01:28:46;;;;;;;11.95;6.15;;;;;;;26.86;58.40;98268.06;4410614;32;20090;-80
2022/08/30 01:31:14;;;;;;;14.38;6.70;;;;;;;26.80;58.71;98262.44;4410559;32;20078;-80
2022/08/30 01:33:42;;;;;;;11.27;5.82;;;;;;;27.58;56.19;98274.41;4410223;32;20098;-80
2022/08/30 01:36:11;;;;;;;11.98;6.50;;;;;;;27.61;55.20;98264.31;4410397;32;20138;-80
2022/08/30 01:38:42;;;;;;;12.98;6.57;;;;;;;27.53;55.52;98266.94;4410105;32;20177;-81
2022/08/30 01:41:13;;;;;;;9.75;5.30;;;;;;;26.91;57.25;98268.44;4409290;32;20102;-80
2022/08/30 01:43:41;;;;;;;11.98;5.80;;;;;;;27.32;56.07;98267.47;4409206;32;20102;-80
2022/08/30 01:46:10;;;;;;;11.75;5.68;;;;;;;27.88;53.52;98267.59;4410066;32;20475;-81
2022/08/30 01:48:39;;;;;;;11.88;5.45;;;;;;;27.13;55.92;98264.34;4410239;32;20085;-80
2022/08/30 01:51:10;;;;;;;12.98;5.85;;;;;;;27.61;54.21;98264.31;4410311;32;20078;-80
2022/08/30 01:53:39;;;;;;;12.45;6.37;;;;;;;27.93;52.86;98263.44;4409882;32;20466;-80
2022/08/30 01:56:07;;;;;;;11.45;6.20;;;;;;;27.49;54.45;98257.69;4410324;32;20524;-80
2022/08/30 01:58:35;;;;;;;15.77;5.82;;;;;;;26.66;56.95;98260.41;4410291;32;20111;-80
2022/08/30 02:01:04;;;;;;;10.80;5.03;;;;;;;26.87;56.51;98264.44;4410040;32;20158;-81
2022/08/30 02:03:34;;;;;;;12.43;5.70;;;;;;;27.49;54.66;98263.00;4421807;32;20106;-80
2022/08/30 02:06:06;;;;;;;12.48;5.93;;;;;;;27.12;55.52;98262.69;4410213;32;20157;-79
2022/08/30 02:08:33;;;;;;;12.20;5.68;;;;;;;27.06;55.19;98264.97;4409729;32;20138;-80
2022/08/30 02:11:00;;;;;;;10.95;5.65;;;;;;;27.23;55.21;98260.53;4410205;32;20074;-80
2022/08/30 02:13:27;;;;;;;12.07;6.50;;;;;;;27.24;55.38;98256.88;4408560;32;20103;-81
2022/08/30 02:15:54;;;;;;;12.18;5.65;;;;;;;27.00;56.05;98255.00;4410116;32;20588;-81
2022/08/30 02:18:24;;;;;;;11.05;5.70;;;;;;;26.74;56.69;98244.56;4410033;32;20078;-80
2022/08/30 02:20:51;;;;;;;12.20;5.55;;;;;;;26.37;57.89;98246.78;4409896;32;20082;-81
2022/08/30 02:23:18;;;;;;;12.00;6.00;;;;;;;26.64;57.46;98240.41;4410162;32;20112;-80
2022/08/30 02:25:45;;;;;;;10.80;5.70;;;;;;;26.98;56.01;98246.41;4409880;32;20149;-80
2022/08/30 02:28:14;;;;;;;12.45;5.35;;;;;;;26.89;56.14;98242.09;4409873;32;20100;-81
2022/08/30 02:30:45;;;;;;;14.50;5.93;;;;;;;26.56;57.07;98241.22;4410275;32;20412;-80
2022/08/30 02:33:13;;;;;;;11.43;6.20;;;;;;;26.38;57.43;98237.88;4410102;32;20113;-80
2022/08/30 02:35:40;;;;;;;15.57;5.85;;;;;;;26.56;57.11;98230.63;4409524;32;20112;-81
2022/08/30 02:38:07;;;;;;;11.02;6.15;;;;;;;26.86;55.72;98233.66;4409055;32;20161;-80
2022/08/30 02:40:34;;;;;;;11.48;5.35;;;;;;;27.00;54.83;98228.53;4410066;32;20077;-80
2022/08/30 02:43:04;;;;;;;10.65;5.37;;;;;;;26.76;55.54;98228.50;4409803;32;20102;-81
2022/08/30 02:45:31;;;;;;;10.88;5.90;;;;;;;26.55;56.64;98228.97;4409702;32;20146;-80
2022/08/30 02:47:59;;;;;;;10.73;5.25;;;;;;;26.77;55.63;98238.94;4410097;32;20100;-80
2022/08/30 02:50:26;;;;;;;9.30;4.93;;;;;;;27.41;53.12;98233.84;4409607;32;20153;-81
2022/08/30 02:52:53;;;;;;;10.73;5.72;;;;;;;26.85;55.01;98234.66;4408773;32;20116;-80
2022/08/30 02:55:22;;;;;;;11.43;6.18;;;;;;;26.16;57.09;98237.44;4409732;32;20131;-80
2022/08/30 02:57:49;;;;;;;14.50;6.07;;;;;;;25.95;57.94;98237.84;4409547;32;20101;-81
2022/08/30 03:00:18;;;;;;;11.70;6.53;;;;;;;25.87;58.27;98240.44;4409846;32;20143;-80
2022/08/30 03:02:46;;;;;;;10.65;5.60;;;;;;;25.95;58.31;98237.84;4409391;32;20106;-81
2022/08/30 03:05:14;;;;;;;14.15;6.43;;;;;;;26.66;56.22;98243.72;4409598;32;20124;-80
2022/08/30 03:07:42;;;;;;;11.40;6.28;;;;;;;26.09;58.02;98249.63;4409510;32;20093;-80
2022/08/30 03:10:09;;;;;;;11.48;6.22;;;;;;;25.98;58.57;98241.16;4409401;32;20108;-81
2022/08/30 03:12:40;;;;;;;14.02;6.43;;;;;;;26.66;56.55;98244.53;4409793;32;20090;-81
2022/08/30 03:15:09;;;;;;;11.48;5.37;;;;;;;26.76;55.92;98247.03;4409419;32;20142;-80
2022/08/30 03:17:36;;;;;;;11.52;6.07;;;;;;;26.98;54.98;98249.06;4409288;32;20144;-81
2022/08/30 03:20:04;;;;;;;11.52;5.70;;;;;;;26.33;56.86;98246.25;4409597;32;20161;-80
2022/08/30 03:22:31;;;;;;;11.57;5.87;;;;;;;26.90;55.24;98253.50;4409488;32;20107;-80
2022/08/30 03:25:00;;;;;;;11.40;6.10;;;;;;;26.47;56.39;98255.41;4408947;32;20142;-80
2022/08/30 03:27:28;;;;;;;11.50;5.62;;;;;;;26.12;57.79;98256.41;4409517;32;20103;-80
2022/08/30 03:29:55;;;;;;;10.40;5.62;;;;;;;26.41;57.08;98266.62;4408379;32;20166;-80
2022/08/30 03:32:22;;;;;;;12.85;6.00;;;;;;;26.64;56.00;98264.22;4409105;32;20138;-81
2022/08/30 03:34:49;;;;;;;11.43;5.85;;;;;;;26.08;57.53;98265.66;4408016;32;20127;-80
2022/08/30 03:37:17;;;;;;;13.30;6.53;;;;;;;25.87;58.26;98271.31;4409429;32;20169;-80
2022/08/30 03:39:44;;;;;;;12.25;6.47;;;;;;;26.90;55.35;98270.22;4420321;32;20137;-81
2022/08/30 03:42:12;;;;;;;11.15;6.20;;;;;;;26.80;55.20;98283.63;4409308;32;20102;-80
2022/08/30 03:44:39;;;;;;;11.95;6.18;;;;;;;26.30;57.09;98282.78;4408878;32;20094;-81
2022/08/30 03:47:07;;;;;;;11.15;6.00;;;;;;;26.13;57.84;98285.31;4409156;32;20089;-80
2022/08/30 03:49:34;;;;;;;12.55;5.95;;;;;;;26.22;57.73;98291.50;4410812;32;20466;-80
2022/08/30 03:52:01;;;;;;;11.35;6.03;;;;;;;26.68;56.04;98289.38;4410718;32;20106;-81
2022/08/30 03:54:28;;;;;;;13.25;6.78;;;;;;;26.50;56.10;98292.13;4410881;32;20097;-80
2022/08/30 03:56:55;;;;;;;11.60;5.95;;;;;;;25.54;59.03;98294.88;4410992;32;20173;-80
2022/08/30 03:59:23;;;;;;;13.25;5.62;;;;;;;26.54;55.65;98293.47;4410614;32;20181;-81
2022/08/30 04:01:50;;;;;;;13.60;6.32;;;;;;;26.23;55.87;98301.91;4411076;32;20106;-80
2022/08/30 04:04:18;;;;;;;11.60;5.95;;;;;;;26.57;55.20;98300.25;4410903;32;20191;-80
2022/08/30 04:06:47;;;;;;;11.12;6.10;;;;;;;25.83;57.11;98301.69;4410442;32;20108;-80
2022/08/30 04:09:14;;;;;;;12.75;5.95;;;;;;;25.88;57.13;98302.06;4411104;32;20104;-80
2022/08/30 04:11:41;;;;;;;10.82;5.90;;;;;;;26.43;55.72;98304.34;4411009;32;20093;-80
2022/08/30 04:14:08;;;;;;;12.32;5.87;;;;;;;26.21;56.63;98311.81;4410578;32;20129;-81
2022/08/30 04:16:35;;;;;;;11.63;5.62;;;;;;;26.00;57.59;98308.72;4410887;32;20449;-80
2022/08/30 04:19:02;;;;;;;11.80;5.75;;;;;;;25.62;58.87;98316.03;4410841;32;20144;-80
2022/08/30 04:21:29;;;;;;;13.75;5.90;;;;;;;26.20;57.52;98311.97;4410715;32;20178;-81
2022/08/30 04:23:57;;;;;;;11.73;6.28;;;;;;;25.47;59.87;98308.81;4410899;32;20171;-80
2022/08/30 04:26:25;;;;;;;12.18;6.47;;;;;;;25.48;60.25;98308.66;4409631;32;20098;-80
2022/08/30 04:28:55;;;;;;;10.82;5.82;;;;;;;26.55;56.80;98312.81;4410622;32;20152;-81
2022/08/30 04:31:22;;;;;;;11.85;6.10;;;;;;;26.27;58.04;98313.03;4410855;32;20102;-80
2022/08/30 04:33:49;;;;;;;10.70;5.80;;;;;;;26.43;57.42;98320.22;4410520;32;20147;-81
2022/08/30 04:36:16;;;;;;;11.55;5.87;;;;;;;26.93;55.52;98328.16;4410806;32;20478;-80
2022/08/30 04:38:43;;;;;;;11.68;6.35;;;;;;;26.46;57.05;98331.31;4410706;32;20174;-80
2022/08/30 04:41:14;;;;;;;11.57;6.30;;;;;;;26.33;57.68;98338.00;4410469;32;20103;-81
2022/08/30 04:43:42;;;;;;;12.98;6.18;;;;;;;25.80;59.02;98329.25;4410809;32;20138;-80
2022/08/30 04:46:09;;;;;;;12.63;6.18;;;;;;;25.79;59.35;98327.59;4410811;32;20153;-80
2022/08/30 04:48:37;;;;;;;11.20;5.93;;;;;;;25.95;59.17;98334.81;4410475;32;20624;-81
2022/08/30 04:51:10;;;;;;;11.27;6.32;;;;;;;26.12;59.11;98341.03;4410797;32;20149;-80
2022/08/30 04:53:37;;;;;;;12.82;6.45;;;;;;;25.75;60.26;98339.47;4410722;32;20138;-80
2022/08/30 04:56:18;;;;;;;11.90;6.57;;;;;;;25.83;60.71;98338.69;4410180;32;20165;-81
2022/08/30 04:58:46;;;;;;;14.18;7.28;;;;;;;26.20;59.63;98339.25;4410531;32;20481;-80
2022/08/30 05:01:22;;;;;;;11.32;6.60;;;;;;;25.97;60.31;98329.38;4410074;32;20118;-79
2022/08/30 05:03:51;;;;;;;13.68;5.87;;;;;;;27.21;55.39;98339.31;4410143;32;20166;-79
2022/08/30 05:06:18;;;;;;;14.05;6.70;;;;;;;27.62;53.13;98339.34;4410408;32;20848;-79
2022/08/30 05:08:45;;;;;;;15.25;6.93;;;;;;;27.44;53.30;98349.28;4410307;32;20161;-79
2022/08/30 05:11:14;;;;;;;10.90;6.00;;;;;;;27.35;53.68;98353.75;4410672;32;20095;-79
2022/08/30 05:13:42;;;;;;;12.40;6.07;;;;;;;27.42;53.71;98351.25;4410436;32;20578;-79
2022/08/30 05:16:09;;;;;;;11.55;5.82;;;;;;;26.38;56.99;98347.16;4410124;32;20572;-79
2022/08/30 05:18:36;;;;;;;12.52;6.62;;;;;;;26.12;58.41;98352.44;4410369;32;20158;-79
2022/08/30 05:21:10;;;;;;;12.93;6.75;;;;;;;26.26;58.92;98358.94;4410432;32;20106;-79
2022/08/30 05:23:37;;;;;;;11.95;6.40;;;;;;;26.00;61.08;98345.75;4410302;32;20128;-80
2022/08/30 05:26:11;;;;;;;13.68;7.50;;;;;;;26.44;60.24;98348.31;4408960;32;20176;-80
2022/08/30 05:28:38;;;;;;;15.40;7.78;;;;;;;26.80;59.33;98343.69;4410491;32;20346;-79
2022/08/30 05:31:26;;;;;;;13.07;7.20;;;;;;;26.65;59.38;98347.91;4409908;32;20103;-79
2022/08/30 05:33:54;;;;;;;11.52;6.50;;;;;;;26.47;60.38;98348.00;4410484;32;20090;-79
2022/08/30 05:36:23;;;;;;;14.98;6.87;;;;;;;25.45;63.58;98348.63;4410312;32;20161;-79
2022/08/30 05:38:52;;;;;;;11.68;5.85;;;;;;;27.27;57.80;98359.88;4409969;32;20141;-79
2022/08/30 05:41:20;;;;;;;18.65;7.03;;;;;;;28.35;53.11;98357.84;4410223;32;20090;-79
2022/08/30 05:43:47;;;;;;;17.08;7.10;;;;;;;27.83;54.73;98376.81;4410356;32;20630;-79
2022/08/30 05:46:18;;;;;;;16.50;6.78;;;;;;;27.57;55.30;98371.66;4409794;32;20145;-80
2022/08/30 05:48:46;;;;;;;14.63;6.22;;;;;;;27.70;56.03;98365.88;4421539;32;20445;-80
2022/08/30 05:51:19;;;;;;;14.18;6.05;;;;;;;28.13;54.25;98377.09;4409905;32;20161;-81
2022/08/30 05:53:47;;;;;;;11.35;5.80;;;;;;;27.25;56.80;98375.09;4410097;32;20111;-80
2022/08/30 05:56:19;;;;;;;10.93;5.97;;;;;;;28.53;52.58;98377.03;4410044;32;20172;-80
2022/08/30 05:58:50;;;;;;;10.20;5.95;;;;;;;28.03;53.83;98379.94;4409869;32;20066;-80
2022/08/30 06:01:25;;;;;;;12.50;5.60;;;;;;;29.05;53.71;98383.66;4410111;32;20110;-80
2022/08/30 06:03:54;;;;;;;11.38;5.85;;;;;;;30.70;48.11;98383.75;4410087;32;20135;-81
2022/08/30 06:06:25;;;;;;;10.60;5.60;;;;;;;31.22;47.13;98387.25;4409829;32;20086;-81
2022/08/30 06:08:52;;;;;;;11.82;5.70;;;;;;;31.95;45.82;98386.94;4410177;32;20129;-80
2022/08/30 06:11:21;;;;;;;10.10;5.28;;;;;;;32.18;45.58;98393.87;4409265;32;20097;-80
2022/08/30 06:13:49;;;;;;;13.10;5.65;;;;;;;32.29;44.15;98387.19;4409271;32;20090;-80
2022/08/30 06:16:18;;;;;;;10.02;5.65;;;;;;;32.16;44.83;98388.75;4409921;32;20783;-80
2022/08/30 06:18:45;;;;;;;11.93;5.97;;;;;;;31.74;46.34;98386.94;4421333;32;20157;-80
2022/08/30 06:21:18;;;;;;;12.77;6.53;;;;;;;32.06;44.64;98390.09;4409678;32;20090;-80
2022/08/30 06:23:46;;;;;;;13.07;6.85;;;;;;;31.72;45.63;98391.66;4409924;32;20112;-82
2022/08/30 06:26:13;;;;;;;13.02;7.18;;;;;;;32.73;42.20;98392.16;4409488;32;20112;-81
2022/08/30 06:28:40;;;;;;;12.90;6.50;;;;;;;32.91;39.66;98389.00;4409835;32;20145;-82
2022/08/30 06:31:09;;;;;;;13.40;7.18;;;;;;;32.28;39.34;98385.53;4408773;32;20173;-81
2022/08/30 06:33:37;;;;;;;11.75;6.60;;;;;;;31.79;41.62;98384.53;4409496;32;20095;-81
2022/08/30 06:36:14;;;;;;;11.88;7.32;;;;;;;30.37;43.89;98390.44;4409402;32;20086;-81
2022/08/30 06:38:41;;;;;;;13.70;7.30;;;;;;;30.55;43.69;98387.41;4421057;32;20124;-81
2022/08/30 06:41:13;;;;;;;15.23;7.00;;;;;;;30.44;45.40;98386.03;4424796;32;20105;-81
2022/08/30 06:43:40;;;;;;;13.55;7.32;;;;;;;28.86;47.55;98382.22;4424442;32;20112;-78
2022/08/30 06:46:21;;;;;;;12.80;7.00;;;;;;;29.94;45.69;98384.84;4423603;32;20166;-79
2022/08/30 06:48:48;;;;;;;12.88;7.45;;;;;;;29.92;44.72;98384.19;4424700;32;20127;-80
2022/08/30 06:51:20;;;;;;;15.23;7.10;;;;;;;29.92;44.86;98386.84;4425007;32;20102;-80
2022/08/30 06:53:48;;;;;;;14.82;7.03;;;;;;;30.68;42.80;98395.59;4424987;32;20153;-80
2022/08/30 06:56:16;;;;;;;12.37;6.93;;;;;;;30.52;43.98;98397.41;4424580;32;20161;-80
2022/08/30 06:58:43;;;;;;;12.80;7.45;;;;;;;30.36;42.93;98402.09;4424850;32;20173;-80
2022/08/30 07:01:12;;;;;;;13.43;7.03;;;;;;;29.76;44.54;98395.78;4424688;32;20111;-80
2022/08/30 07:03:39;;;;;;;12.27;7.03;;;;;;;30.16;42.95;98399.94;4424873;32;20139;-80
2022/08/30 07:06:07;;;;;;;12.85;7.55;;;;;;;29.00;46.78;98408.06;4424698;32;20097;-80
2022/08/30 07:08:34;;;;;;;12.35;7.12;;;;;;;29.59;45.33;98400.44;4424355;32;20118;-80
2022/08/30 07:11:02;;;;;;;12.13;7.43;;;;;;;29.64;45.50;98402.53;4424771;32;20509;-80
2022/08/30 07:13:30;;;;;;;14.32;7.37;;;;;;;30.14;45.02;98401.97;4424863;32;20124;-80
2022/08/30 07:15:57;;;;;;;13.27;7.03;;;;;;;31.81;41.01;98406.53;4424257;32;20408;-81
2022/08/30 07:21:15;;;;;;;14.77;7.00;;;;;;;32.78;38.66;98417.28;4424918;32;20141;-80
2022/08/30 07:23:42;;;;;;;16.73;7.07;;;;;;;31.75;41.40;98417.16;4423768;32;20555;-81
2022/08/30 07:26:12;;;;;;;17.35;7.20;;;;;;;32.09;40.19;98409.22;4423855;32;20094;-80
2022/08/30 07:28:41;;;;;;;10.95;6.37;;;;;;;31.87;40.98;98413.75;4424478;32;20140;-80
2022/08/30 07:31:09;;;;;;;11.40;6.12;;;;;;;32.24;39.96;98417.97;4423384;32;20451;-80
2022/08/30 07:33:37;;;;;;;12.10;6.72;;;;;;;31.28;40.22;98411.31;4424464;32;20081;-81
2022/08/30 07:36:04;;;;;;;12.25;6.00;;;;;;;30.43;42.79;98414.50;4424403;32;20143;-81
2022/08/30 07:38:31;;;;;;;14.32;6.62;;;;;;;31.66;40.71;98419.91;4423787;32;20152;-80
2022/08/30 07:41:00;;;;;;;13.30;6.40;;;;;;;30.86;42.63;98419.19;4424492;32;20102;-80
2022/08/30 07:43:27;;;;;;;12.15;6.45;;;;;;;32.80;38.19;98423.25;4424104;32;20141;-80
2022/08/30 07:45:56;;;;;;;14.95;7.12;;;;;;;32.96;38.39;98423.97;4424318;32;20086;-81
2022/08/30 07:48:23;;;;;;;13.40;7.50;;;;;;;32.88;39.13;98419.62;4424218;32;20089;-80
2022/08/30 07:50:50;;;;;;;17.58;7.43;;;;;;;31.19;41.88;98424.94;4422817;32;20121;-80
2022/08/30 07:53:24;;;;;;;13.95;6.87;;;;;;;32.71;39.38;98420.94;4424312;32;20165;-80
2022/08/30 07:55:51;;;;;;;11.00;6.62;;;;;;;28.79;46.83;98413.09;4424093;32;20100;-80
2022/08/30 07:58:18;;;;;;;12.65;6.55;;;;;;;29.14;45.87;98409.16;4423581;32;20454;-80
2022/08/30 08:00:45;;;;;;;14.63;6.50;;;;;;;30.85;43.08;98409.56;4424013;32;20116;-80
2022/08/30 08:03:12;;;;;;;11.45;6.28;;;;;;;30.87;41.68;98418.19;4423903;32;20108;-80
2022/08/30 08:05:41;;;;;;;12.55;6.37;;;;;;;32.31;39.10;98417.19;4423497;32;20471;-80
2022/08/30 08:08:09;;;;;;;11.15;6.35;;;;;;;32.90;37.29;98422.91;4423649;32;20078;-80
2022/08/30 08:10:38;;;;;;;12.82;5.72;;;;;;;32.82;38.67;98417.72;4423995;32;20156;-80
2022/08/30 08:13:05;;;;;;;11.75;5.70;;;;;;;32.58;38.51;98410.19;4423519;32;20106;-80
2022/08/30 08:15:32;;;;;;;11.05;6.30;;;;;;;33.11;36.90;98421.97;4423700;32;20090;-80
2022/08/30 08:18:00;;;;;;;12.60;7.00;;;;;;;31.92;39.38;98411.34;4423755;32;20086;-80
2022/08/30 08:20:27;;;;;;;13.18;6.25;;;;;;;31.24;41.03;98407.37;4423243;32;20170;-80
2022/08/30 08:22:54;;;;;;;10.02;5.70;;;;;;;33.41;36.65;98416.34;4423769;32;20097;-80
2022/08/30 08:25:22;;;;;;;11.73;5.53;;;;;;;34.81;33.89;98424.16;4423282;32;20492;-80
2022/08/30 08:27:50;;;;;;;11.55;5.75;;;;;;;34.59;33.80;98423.59;4423585;32;20161;-80
2022/08/30 08:30:19;;;;;;;10.80;5.57;;;;;;;33.26;35.94;98424.47;4435128;32;20437;-80
2022/08/30 08:32:47;;;;;;;11.10;5.82;;;;;;;33.63;35.34;98424.00;4423268;32;20085;-79
2022/08/30 08:35:16;;;;;;;9.90;5.70;;;;;;;33.76;35.37;98425.03;4423992;32;20125;-80
2022/08/30 08:37:43;;;;;;;12.10;5.93;;;;;;;32.83;36.57;98423.91;4425828;32;20172;-80
2022/08/30 08:40:14;;;;;;;12.07;5.97;;;;;;;34.30;34.44;98427.53;4425374;32;20138;-79
2022/08/30 08:43:09;;;;;;;12.75;6.00;;;;;;;33.30;36.67;98425.75;4425941;32;20466;-80
2022/08/30 08:45:41;;;;;;;10.07;6.00;;;;;;;34.81;33.34;98432.19;4425642;32;20118;-80
2022/08/30 08:48:38;;;;;;;11.85;6.07;;;;;;;33.09;36.87;98427.53;4425406;32;20192;-80
2022/08/30 08:54:46;;;;;;;9.93;5.57;;;;;;;33.81;35.06;98427.91;4424534;32;20105;-80
2022/08/30 08:57:13;;;;;;;12.40;5.97;;;;;;;33.22;35.35;98425.91;4424511;32;20413;-79
2022/08/30 08:59:44;;;;;;;11.00;6.00;;;;;;;29.86;42.33;98416.81;4424350;32;20165;-79
2022/08/30 09:02:28;;;;;;;11.23;6.30;;;;;;;29.90;42.53;98416.31;4424256;32;20449;-79
2022/08/30 09:04:59;;;;;;;11.88;6.25;;;;;;;30.68;41.64;98422.22;4425647;32;20165;-80
2022/08/30 09:07:29;;;;;;;13.65;5.85;;;;;;;31.58;39.34;98413.88;4425053;32;20145;-79
2022/08/30 09:09:59;;;;;;;13.98;6.35;;;;;;;31.33;39.65;98414.25;4412085;32;20078;-78
2022/08/30 09:12:26;;;;;;;13.35;5.70;;;;;;;32.54;37.23;98420.47;4424503;32;20110;-78
2022/08/30 09:14:58;;;;;;;13.75;6.18;;;;;;;33.31;35.63;98409.50;4425181;32;20266;-78
2022/08/30 09:17:25;;;;;;;10.75;5.53;;;;;;;34.28;34.24;98413.53;4424598;32;20140;-78
2022/08/30 09:19:53;;;;;;;11.80;6.00;;;;;;;34.47;34.48;98404.66;4425527;32;20402;-78
2022/08/30 09:22:34;;;;;;;12.88;5.97;;;;;;;32.86;37.21;98405.66;4425248;32;20459;-79
2022/08/30 09:25:07;;;;;;;10.68;5.40;;;;;;;34.05;34.68;98399.75;4425587;32;20128;-78
2022/08/30 09:27:36;;;;;;;10.18;5.20;;;;;;;33.15;35.93;98398.31;4425562;32;20618;-78
2022/08/30 09:30:12;;;;;;;11.20;5.30;;;;;;;34.34;33.22;98401.13;4425297;32;20112;-78
2022/08/30 09:33:00;;;;;;;11.65;5.97;;;;;;;33.74;35.42;98395.81;4425873;32;20163;-78
2022/08/30 09:35:42;;;;;;;12.20;5.90;;;;;;;33.72;34.50;98387.16;4425081;32;20412;-78
2022/08/30 09:38:18;;;;;;;10.57;5.22;;;;;;;34.57;33.69;98388.16;4425425;32;20488;-79
2022/08/30 09:40:46;;;;;;;11.82;6.03;;;;;;;34.75;33.39;98390.13;4425414;32;20164;-79
2022/08/30 09:43:16;;;;;;;10.57;5.55;;;;;;;35.11;32.76;98386.94;4423993;32;20468;-79
2022/08/30 09:45:46;;;;;;;12.15;6.15;;;;;;;35.28;32.19;98385.37;4425022;32;20097;-78
2022/08/30 09:48:42;;;;;;;11.38;4.97;;;;;;;34.17;34.12;98384.69;4425398;32;20093;-79
2022/08/30 09:51:09;;;;;;;11.57;5.68;;;;;;;34.50;33.71;98385.47;4423956;32;20104;-78
2022/08/30 09:53:52;;;;;;;9.70;5.32;;;;;;;33.19;35.41;98381.69;4425484;32;20144;-78
2022/08/30 09:57:11;;;;;;;11.23;5.97;;;;;;;35.12;33.35;98377.84;4424812;32;20431;-79
2022/08/30 09:59:48;;;;;;;11.93;5.62;;;;;;;35.82;31.74;98385.84;4424139;32;20090;-79
2022/08/30 10:02:49;;;;;;;12.45;5.80;;;;;;;35.20;31.91;98380.28;4437015;32;20132;-77
2022/08/30 10:05:32;;;;;;;11.65;5.55;;;;;;;34.08;33.45;98364.53;4424999;32;20475;-78
2022/08/30 10:08:04;;;;;;;11.70;5.87;;;;;;;34.43;32.93;98357.06;4424897;32;20154;-78
2022/08/30 10:10:52;;;;;;;13.62;5.87;;;;;;;33.72;35.42;98355.06;4425069;32;20085;-79
2022/08/30 10:13:37;;;;;;;11.23;5.93;;;;;;;32.21;37.25;98362.28;4425449;32;20207;-79
2022/08/30 10:16:29;;;;;;;11.57;6.07;;;;;;;32.51;37.64;98360.22;4425138;32;20115;-78
2022/08/30 10:19:15;;;;;;;10.25;6.03;;;;;;;32.06;38.38;98360.75;4424969;32;20161;-79
2022/08/30 10:21:58;;;;;;;11.82;5.90;;;;;;;32.29;37.30;98358.66;4425263;32;20090;-79
2022/08/30 10:24:30;;;;;;;11.48;6.30;;;;;;;32.18;37.40;98345.84;4423917;32;20425;-79
2022/08/30 10:27:25;;;;;;;10.60;5.87;;;;;;;33.64;35.19;98349.91;4424894;32;20149;-80
2022/08/30 10:30:05;;;;;;;11.65;6.18;;;;;;;34.88;33.74;98354.44;4424113;32;20432;-79
2022/08/30 10:32:51;;;;;;;11.25;5.82;;;;;;;35.23;32.66;98353.03;4424851;32;20391;-79
2022/08/30 10:35:24;;;;;;;11.07;5.97;;;;;;;36.08;31.99;98344.56;4423826;32;20149;-79
2022/08/30 10:37:59;;;;;;;12.45;7.53;;;;;;;35.38;32.63;98343.88;4423845;32;20165;-78
2022/08/30 10:43:24;;;;;;;10.40;5.45;;;;;;;34.84;32.25;98354.03;4435157;32;20178;-78
2022/08/30 10:45:54;;;;;;;10.90;5.53;;;;;;;35.47;31.64;98350.62;4423649;32;20139;-79
2022/08/30 10:48:26;;;;;;;10.60;5.32;;;;;;;34.57;33.40;98347.97;4436681;32;20165;-79
2022/08/30 10:50:58;;;;;;;11.10;5.75;;;;;;;34.40;34.00;98347.59;4425087;32;20161;-79
2022/08/30 10:53:32;;;;;;;11.07;5.40;;;;;;;34.97;32.71;98345.13;4424740;32;20522;-79
2022/08/30 10:56:06;;;;;;;10.32;5.68;;;;;;;36.11;30.66;98342.22;4423827;32;20078;-79
2022/08/30 10:58:39;;;;;;;9.63;5.32;;;;;;;36.73;29.48;98342.19;4422714;32;20488;-80
2022/08/30 11:01:16;;;;;;;10.38;5.53;;;;;;;36.38;30.07;98342.81;4423391;32;20129;-80
2022/08/30 11:03:53;;;;;;;11.40;5.95;;;;;;;36.95;29.17;98337.19;4436413;32;20093;-80
2022/08/30 11:06:38;;;;;;;12.93;5.18;;;;;;;35.30;32.14;98331.50;4424734;32;20078;-79
2022/08/30 11:09:21;;;;;;;8.68;4.75;;;;;;;36.34;31.48;98336.22;4423563;32;20116;-79
2022/08/30 11:12:27;;;;;;;11.27;5.35;;;;;;;35.11;33.32;98330.63;4424784;32;20093;-79
2022/08/30 11:14:55;;;;;;;12.27;5.60;;;;;;;35.93;32.01;98328.78;4424368;32;20089;-79
2022/08/30 11:17:25;;;;;;;17.27;5.68;;;;;;;34.60;33.73;98322.59;4423519;32;20081;-79
2022/08/30 11:19:54;;;;;;;12.20;5.70;;;;;;;34.66;34.07;98327.91;4424739;32;20116;-80
2022/08/30 11:22:27;;;;;;;11.45;5.72;;;;;;;32.96;37.02;98322.41;4423221;32;20109;-78
2022/08/30 11:24:58;;;;;;;12.85;5.78;;;;;;;32.35;38.12;98322.34;4423458;32;20176;-80
2022/08/30 11:27:41;;;;;;;12.75;6.10;;;;;;;32.27;38.16;98319.81;4436162;32;20108;-80
2022/08/30 11:30:23;;;;;;;13.25;5.80;;;;;;;33.66;35.93;98318.41;4423223;32;20109;-80
2022/08/30 11:33:08;;;;;;;18.52;6.00;;;;;;;33.04;36.90;98319.53;4423933;32;20132;-80
2022/08/30 11:35:39;;;;;;;18.98;6.32;;;;;;;33.85;34.83;98316.75;4421495;32;20453;-79
2022/08/30 11:38:26;;;;;;;9.45;5.30;;;;;;;33.77;35.28;98314.28;4423937;32;20086;-79
2022/08/30 11:40:57;;;;;;;11.38;5.50;;;;;;;30.17;42.47;98307.63;4423019;32;20097;-80
2022/08/30 11:43:34;;;;;;;11.25;5.80;;;;;;;29.31;44.77;98304.41;4423710;32;20101;-79
2022/08/30 11:46:27;;;;;;;9.63;5.15;;;;;;;29.00;45.20;98303.63;4424109;32;20592;-79
2022/08/30 11:49:11;;;;;;;9.80;4.93;;;;;;;30.64;42.23;98301.94;4423935;32;20109;-79
2022/08/30 11:52:06;;;;;;;9.50;4.97;;;;;;;31.42;40.24;98300.31;4424312;32;20153;-79
2022/08/30 11:55:17;;;;;;;10.55;5.00;;;;;;;31.58;40.15;98299.19;4424196;32;20113;-79